sensor_id;sensor_type;location;lat;lon;timestamp;P1;durP1;ratioP1;P2;durP2;ratioP2
22064;SDS011;11197;53.110;8.468;2023-05-10T00:01:23;17.08;;;12.90;;
22064;SDS011;11197;53.110;8.468;2023-05-10T00:03:49;13.00;;;11.52;;
22064;SDS011;11197;53.110;8.468;2023-05-10T00:06:15;14.02;;;12.25;;
22064;SDS011;11197;53.110;8.468;2023-05-10T00:08:44;15.93;;;14.32;;
22064;SDS011;11197;53.110;8.468;2023-05-10T00:11:10;16.35;;;14.57;;
22064;SDS011;11197;53.110;8.468;2023-05-10T00:13:36;15.25;;;13.65;;
22064;SDS011;11197;53.110;8.468;2023-05-10T00:16:02;14.40;;;12.60;;
22064;SDS011;11197;53.110;8.468;2023-05-10T00:18:28;17.90;;;15.50;;
22064;SDS011;11197;53.110;8.468;2023-05-10T00:20:53;19.73;;;16.58;;
22064;SDS011;11197;53.110;8.468;2023-05-10T00:23:19;20.83;;;18.52;;
22064;SDS011;11197;53.110;8.468;2023-05-10T00:25:45;22.75;;;20.27;;
22064;SDS011;11197;53.110;8.468;2023-05-10T00:28:12;19.42;;;16.88;;
22064;SDS011;11197;53.110;8.468;2023-05-10T00:30:37;24.05;;;20.90;;
22064;SDS011;11197;53.110;8.468;2023-05-10T00:33:03;20.13;;;17.65;;
22064;SDS011;11197;53.110;8.468;2023-05-10T00:35:29;22.40;;;19.45;;
22064;SDS011;11197;53.110;8.468;2023-05-10T00:37:55;23.10;;;19.98;;
22064;SDS011;11197;53.110;8.468;2023-05-10T00:40:21;22.58;;;19.65;;
22064;SDS011;11197;53.110;8.468;2023-05-10T00:42:52;18.73;;;16.77;;
22064;SDS011;11197;53.110;8.468;2023-05-10T00:45:17;19.40;;;17.15;;
22064;SDS011;11197;53.110;8.468;2023-05-10T00:47:44;17.17;;;15.38;;
22064;SDS011;11197;53.110;8.468;2023-05-10T00:50:10;16.55;;;14.60;;
22064;SDS011;11197;53.110;8.468;2023-05-10T00:52:36;18.83;;;16.83;;
22064;SDS011;11197;53.110;8.468;2023-05-10T00:55:02;17.38;;;15.32;;
22064;SDS011;11197;53.110;8.468;2023-05-10T00:57:30;16.85;;;14.65;;
22064;SDS011;11197;53.110;8.468;2023-05-10T00:59:56;15.75;;;14.05;;
22064;SDS011;11197;53.110;8.468;2023-05-10T01:02:24;16.05;;;14.35;;
22064;SDS011;11197;53.110;8.468;2023-05-10T01:04:50;17.05;;;14.60;;
22064;SDS011;11197;53.110;8.468;2023-05-10T01:07:17;14.07;;;12.57;;
22064;SDS011;11197;53.110;8.468;2023-05-10T01:09:42;13.48;;;12.07;;
22064;SDS011;11197;53.110;8.468;2023-05-10T01:12:10;14.25;;;12.38;;
22064;SDS011;11197;53.110;8.468;2023-05-10T01:14:36;14.55;;;13.00;;
22064;SDS011;11197;53.110;8.468;2023-05-10T01:17:02;14.95;;;12.55;;
22064;SDS011;11197;53.110;8.468;2023-05-10T01:19:30;15.52;;;13.55;;
22064;SDS011;11197;53.110;8.468;2023-05-10T01:31:13;11.70;;;10.50;;
22064;SDS011;11197;53.110;8.468;2023-05-10T01:34:09;15.32;;;13.30;;
22064;SDS011;11197;53.110;8.468;2023-05-10T01:42:10;20.15;;;16.95;;
22064;SDS011;11197;53.110;8.468;2023-05-10T01:47:12;20.70;;;17.98;;
22064;SDS011;11197;53.110;8.468;2023-05-10T01:49:47;22.35;;;19.08;;
22064;SDS011;11197;53.110;8.468;2023-05-10T01:52:18;23.83;;;20.08;;
22064;SDS011;11197;53.110;8.468;2023-05-10T01:57:18;22.52;;;18.38;;
22064;SDS011;11197;53.110;8.468;2023-05-10T01:59:47;18.05;;;15.70;;
22064;SDS011;11197;53.110;8.468;2023-05-10T02:02:15;19.17;;;16.08;;
22064;SDS011;11197;53.110;8.468;2023-05-10T02:04:43;17.00;;;15.18;;
22064;SDS011;11197;53.110;8.468;2023-05-10T02:07:11;17.40;;;15.38;;
22064;SDS011;11197;53.110;8.468;2023-05-10T02:09:39;20.00;;;15.52;;
22064;SDS011;11197;53.110;8.468;2023-05-10T02:12:09;17.38;;;14.73;;
22064;SDS011;11197;53.110;8.468;2023-05-10T02:14:37;15.70;;;13.00;;
22064;SDS011;11197;53.110;8.468;2023-05-10T02:17:05;15.75;;;12.65;;
22064;SDS011;11197;53.110;8.468;2023-05-10T02:19:32;14.25;;;12.75;;
22064;SDS011;11197;53.110;8.468;2023-05-10T02:21:59;15.20;;;11.85;;
22064;SDS011;11197;53.110;8.468;2023-05-10T02:24:27;16.25;;;11.38;;
22064;SDS011;11197;53.110;8.468;2023-05-10T02:26:54;15.80;;;11.75;;
22064;SDS011;11197;53.110;8.468;2023-05-10T02:29:23;15.68;;;11.27;;
22064;SDS011;11197;53.110;8.468;2023-05-10T02:31:51;12.63;;;10.95;;
22064;SDS011;11197;53.110;8.468;2023-05-10T02:34:19;11.82;;;10.52;;
22064;SDS011;11197;53.110;8.468;2023-05-10T02:36:50;11.98;;;9.82;;
22064;SDS011;11197;53.110;8.468;2023-05-10T02:39:21;13.02;;;10.30;;
22064;SDS011;11197;53.110;8.468;2023-05-10T02:41:49;10.73;;;9.02;;
22064;SDS011;11197;53.110;8.468;2023-05-10T02:44:17;11.90;;;9.32;;
22064;SDS011;11197;53.110;8.468;2023-05-10T02:46:45;11.43;;;8.98;;
22064;SDS011;11197;53.110;8.468;2023-05-10T02:49:12;9.57;;;7.85;;
22064;SDS011;11197;53.110;8.468;2023-05-10T02:51:40;10.85;;;7.75;;
22064;SDS011;11197;53.110;8.468;2023-05-10T02:54:10;10.20;;;7.40;;
22064;SDS011;11197;53.110;8.468;2023-05-10T02:56:42;9.98;;;7.20;;
22064;SDS011;11197;53.110;8.468;2023-05-10T02:59:15;10.57;;;7.50;;
22064;SDS011;11197;53.110;8.468;2023-05-10T03:01:41;9.20;;;7.15;;
22064;SDS011;11197;53.110;8.468;2023-05-10T03:04:07;8.77;;;7.00;;
22064;SDS011;11197;53.110;8.468;2023-05-10T03:06:33;8.38;;;6.47;;
22064;SDS011;11197;53.110;8.468;2023-05-10T03:09:01;8.18;;;6.65;;
22064;SDS011;11197;53.110;8.468;2023-05-10T03:17:20;8.18;;;7.05;;
22064;SDS011;11197;53.110;8.468;2023-05-10T03:19:58;9.52;;;6.80;;
22064;SDS011;11197;53.110;8.468;2023-05-10T03:22:34;9.23;;;6.75;;
22064;SDS011;11197;53.110;8.468;2023-05-10T03:25:08;8.35;;;6.47;;
22064;SDS011;11197;53.110;8.468;2023-05-10T03:27:39;10.15;;;7.15;;
22064;SDS011;11197;53.110;8.468;2023-05-10T03:30:10;9.60;;;6.57;;
22064;SDS011;11197;53.110;8.468;2023-05-10T03:32:37;11.30;;;6.28;;
22064;SDS011;11197;53.110;8.468;2023-05-10T03:35:07;8.95;;;6.40;;
22064;SDS011;11197;53.110;8.468;2023-05-10T03:37:34;9.70;;;6.90;;
22064;SDS011;11197;53.110;8.468;2023-05-10T03:40:00;9.63;;;7.18;;
22064;SDS011;11197;53.110;8.468;2023-05-10T03:42:29;8.30;;;6.68;;
22064;SDS011;11197;53.110;8.468;2023-05-10T03:44:55;10.18;;;6.90;;
22064;SDS011;11197;53.110;8.468;2023-05-10T03:47:22;8.23;;;6.18;;
22064;SDS011;11197;53.110;8.468;2023-05-10T03:49:48;9.98;;;6.68;;
22064;SDS011;11197;53.110;8.468;2023-05-10T03:52:14;8.57;;;6.60;;
22064;SDS011;11197;53.110;8.468;2023-05-10T03:54:40;8.73;;;6.45;;
22064;SDS011;11197;53.110;8.468;2023-05-10T03:57:06;10.70;;;6.80;;
22064;SDS011;11197;53.110;8.468;2023-05-10T03:59:32;8.75;;;6.43;;
22064;SDS011;11197;53.110;8.468;2023-05-10T04:01:58;10.07;;;7.05;;
22064;SDS011;11197;53.110;8.468;2023-05-10T04:04:24;7.53;;;6.68;;
22064;SDS011;11197;53.110;8.468;2023-05-10T04:06:50;9.23;;;6.78;;
22064;SDS011;11197;53.110;8.468;2023-05-10T04:09:16;11.02;;;6.40;;
22064;SDS011;11197;53.110;8.468;2023-05-10T04:11:42;9.90;;;6.38;;
22064;SDS011;11197;53.110;8.468;2023-05-10T04:14:09;7.95;;;6.20;;
22064;SDS011;11197;53.110;8.468;2023-05-10T04:16:35;7.05;;;5.47;;
22064;SDS011;11197;53.110;8.468;2023-05-10T04:19:01;10.95;;;7.07;;
22064;SDS011;11197;53.110;8.468;2023-05-10T04:21:28;8.55;;;6.43;;
22064;SDS011;11197;53.110;8.468;2023-05-10T04:23:57;8.95;;;7.35;;
22064;SDS011;11197;53.110;8.468;2023-05-10T04:26:22;10.15;;;7.47;;
22064;SDS011;11197;53.110;8.468;2023-05-10T04:28:50;11.48;;;7.20;;
22064;SDS011;11197;53.110;8.468;2023-05-10T04:31:16;10.25;;;7.53;;
22064;SDS011;11197;53.110;8.468;2023-05-10T04:33:42;8.77;;;6.88;;
22064;SDS011;11197;53.110;8.468;2023-05-10T04:36:08;11.15;;;7.90;;
22064;SDS011;11197;53.110;8.468;2023-05-10T04:38:34;12.05;;;8.52;;
22064;SDS011;11197;53.110;8.468;2023-05-10T04:41:04;10.75;;;8.13;;
22064;SDS011;11197;53.110;8.468;2023-05-10T04:45:57;12.18;;;9.50;;
22064;SDS011;11197;53.110;8.468;2023-05-10T04:48:23;9.93;;;7.95;;
22064;SDS011;11197;53.110;8.468;2023-05-10T04:50:49;11.88;;;8.32;;
22064;SDS011;11197;53.110;8.468;2023-05-10T04:53:19;12.65;;;8.90;;
22064;SDS011;11197;53.110;8.468;2023-05-10T04:55:44;11.98;;;8.15;;
22064;SDS011;11197;53.110;8.468;2023-05-10T04:58:12;10.27;;;8.23;;
22064;SDS011;11197;53.110;8.468;2023-05-10T05:00:38;10.25;;;7.97;;
22064;SDS011;11197;53.110;8.468;2023-05-10T05:03:04;9.70;;;7.60;;
22064;SDS011;11197;53.110;8.468;2023-05-10T05:05:30;8.93;;;7.47;;
22064;SDS011;11197;53.110;8.468;2023-05-10T05:07:56;9.65;;;8.65;;
22064;SDS011;11197;53.110;8.468;2023-05-10T05:10:22;10.40;;;8.32;;
22064;SDS011;11197;53.110;8.468;2023-05-10T05:12:47;9.02;;;7.97;;
22064;SDS011;11197;53.110;8.468;2023-05-10T05:15:13;9.55;;;7.68;;
22064;SDS011;11197;53.110;8.468;2023-05-10T05:17:41;12.38;;;7.78;;
22064;SDS011;11197;53.110;8.468;2023-05-10T05:20:08;13.30;;;10.45;;
22064;SDS011;11197;53.110;8.468;2023-05-10T05:22:38;10.90;;;9.68;;
22064;SDS011;11197;53.110;8.468;2023-05-10T05:25:04;11.55;;;8.75;;
22064;SDS011;11197;53.110;8.468;2023-05-10T05:27:31;10.07;;;7.68;;
22064;SDS011;11197;53.110;8.468;2023-05-10T05:29:57;11.23;;;8.93;;
22064;SDS011;11197;53.110;8.468;2023-05-10T05:32:23;12.52;;;10.55;;
22064;SDS011;11197;53.110;8.468;2023-05-10T05:34:50;10.48;;;9.18;;
22064;SDS011;11197;53.110;8.468;2023-05-10T05:37:17;10.88;;;8.65;;
22064;SDS011;11197;53.110;8.468;2023-05-10T05:39:44;9.77;;;8.63;;
22064;SDS011;11197;53.110;8.468;2023-05-10T05:42:10;13.70;;;9.98;;
22064;SDS011;11197;53.110;8.468;2023-05-10T05:44:37;11.85;;;10.63;;
22064;SDS011;11197;53.110;8.468;2023-05-10T05:47:05;10.82;;;9.32;;
22064;SDS011;11197;53.110;8.468;2023-05-10T05:49:31;10.75;;;9.65;;
22064;SDS011;11197;53.110;8.468;2023-05-10T05:52:04;11.40;;;8.40;;
22064;SDS011;11197;53.110;8.468;2023-05-10T05:54:30;10.05;;;8.27;;
22064;SDS011;11197;53.110;8.468;2023-05-10T05:57:00;8.55;;;7.53;;
22064;SDS011;11197;53.110;8.468;2023-05-10T05:59:26;9.87;;;6.87;;
22064;SDS011;11197;53.110;8.468;2023-05-10T06:01:52;8.00;;;6.20;;
22064;SDS011;11197;53.110;8.468;2023-05-10T06:04:18;8.05;;;5.75;;
22064;SDS011;11197;53.110;8.468;2023-05-10T06:06:44;7.75;;;4.82;;
22064;SDS011;11197;53.110;8.468;2023-05-10T06:09:10;5.15;;;4.43;;
22064;SDS011;11197;53.110;8.468;2023-05-10T06:11:36;6.45;;;3.67;;
22064;SDS011;11197;53.110;8.468;2023-05-10T06:14:03;4.88;;;3.97;;
22064;SDS011;11197;53.110;8.468;2023-05-10T06:16:30;4.18;;;3.50;;
22064;SDS011;11197;53.110;8.468;2023-05-10T06:18:56;5.53;;;3.40;;
22064;SDS011;11197;53.110;8.468;2023-05-10T06:21:22;5.47;;;3.17;;
22064;SDS011;11197;53.110;8.468;2023-05-10T06:23:48;4.57;;;3.40;;
22064;SDS011;11197;53.110;8.468;2023-05-10T06:26:13;3.42;;;2.60;;
22064;SDS011;11197;53.110;8.468;2023-05-10T06:28:39;4.65;;;3.35;;
22064;SDS011;11197;53.110;8.468;2023-05-10T06:31:06;4.60;;;2.80;;
22064;SDS011;11197;53.110;8.468;2023-05-10T06:33:32;4.75;;;3.00;;
22064;SDS011;11197;53.110;8.468;2023-05-10T06:35:58;5.47;;;3.88;;
22064;SDS011;11197;53.110;8.468;2023-05-10T06:38:25;5.40;;;4.10;;
22064;SDS011;11197;53.110;8.468;2023-05-10T06:40:51;5.07;;;3.85;;
22064;SDS011;11197;53.110;8.468;2023-05-10T06:43:17;5.47;;;3.50;;
22064;SDS011;11197;53.110;8.468;2023-05-10T06:45:43;5.95;;;4.10;;
22064;SDS011;11197;53.110;8.468;2023-05-10T06:48:08;7.80;;;4.40;;
22064;SDS011;11197;53.110;8.468;2023-05-10T06:50:34;5.57;;;4.57;;
22064;SDS011;11197;53.110;8.468;2023-05-10T06:53:00;4.85;;;4.13;;
22064;SDS011;11197;53.110;8.468;2023-05-10T06:55:29;6.50;;;4.30;;
22064;SDS011;11197;53.110;8.468;2023-05-10T06:57:55;4.63;;;3.92;;
22064;SDS011;11197;53.110;8.468;2023-05-10T07:00:21;6.68;;;5.28;;
22064;SDS011;11197;53.110;8.468;2023-05-10T07:02:47;6.70;;;5.30;;
22064;SDS011;11197;53.110;8.468;2023-05-10T07:05:13;8.68;;;5.53;;
22064;SDS011;11197;53.110;8.468;2023-05-10T07:07:39;8.75;;;5.45;;
22064;SDS011;11197;53.110;8.468;2023-05-10T07:10:05;7.00;;;5.68;;
22064;SDS011;11197;53.110;8.468;2023-05-10T07:12:32;6.90;;;5.22;;
22064;SDS011;11197;53.110;8.468;2023-05-10T07:14:58;7.22;;;6.10;;
22064;SDS011;11197;53.110;8.468;2023-05-10T07:17:23;8.23;;;5.95;;
22064;SDS011;11197;53.110;8.468;2023-05-10T07:19:49;7.43;;;5.85;;
22064;SDS011;11197;53.110;8.468;2023-05-10T07:22:15;5.60;;;4.75;;
22064;SDS011;11197;53.110;8.468;2023-05-10T07:24:42;9.00;;;6.30;;
22064;SDS011;11197;53.110;8.468;2023-05-10T07:27:09;8.32;;;6.22;;
22064;SDS011;11197;53.110;8.468;2023-05-10T07:29:35;8.75;;;6.28;;
22064;SDS011;11197;53.110;8.468;2023-05-10T07:32:01;7.40;;;6.30;;
22064;SDS011;11197;53.110;8.468;2023-05-10T07:34:27;8.50;;;6.30;;
22064;SDS011;11197;53.110;8.468;2023-05-10T07:36:55;8.40;;;6.70;;
22064;SDS011;11197;53.110;8.468;2023-05-10T07:39:22;9.05;;;7.32;;
22064;SDS011;11197;53.110;8.468;2023-05-10T07:41:48;7.75;;;6.55;;
22064;SDS011;11197;53.110;8.468;2023-05-10T07:44:14;7.85;;;6.65;;
22064;SDS011;11197;53.110;8.468;2023-05-10T07:46:40;8.00;;;6.40;;
22064;SDS011;11197;53.110;8.468;2023-05-10T07:49:06;7.95;;;6.60;;
22064;SDS011;11197;53.110;8.468;2023-05-10T07:51:31;9.93;;;6.85;;
22064;SDS011;11197;53.110;8.468;2023-05-10T07:53:57;8.23;;;6.20;;
22064;SDS011;11197;53.110;8.468;2023-05-10T07:56:24;7.90;;;6.07;;
22064;SDS011;11197;53.110;8.468;2023-05-10T07:58:54;9.38;;;6.40;;
22064;SDS011;11197;53.110;8.468;2023-05-10T08:01:21;6.85;;;6.15;;
22064;SDS011;11197;53.110;8.468;2023-05-10T08:03:47;8.30;;;6.20;;
22064;SDS011;11197;53.110;8.468;2023-05-10T08:06:14;6.95;;;5.70;;
22064;SDS011;11197;53.110;8.468;2023-05-10T08:08:40;6.60;;;5.35;;
22064;SDS011;11197;53.110;8.468;2023-05-10T08:11:07;7.75;;;5.55;;
22064;SDS011;11197;53.110;8.468;2023-05-10T08:13:33;6.38;;;5.35;;
22064;SDS011;11197;53.110;8.468;2023-05-10T08:15:59;5.90;;;4.40;;
22064;SDS011;11197;53.110;8.468;2023-05-10T08:18:25;6.65;;;4.55;;
22064;SDS011;11197;53.110;8.468;2023-05-10T08:20:51;5.93;;;3.97;;
22064;SDS011;11197;53.110;8.468;2023-05-10T08:23:17;5.82;;;3.70;;
22064;SDS011;11197;53.110;8.468;2023-05-10T08:25:43;4.82;;;4.05;;
22064;SDS011;11197;53.110;8.468;2023-05-10T08:28:09;5.78;;;4.00;;
22064;SDS011;11197;53.110;8.468;2023-05-10T08:30:35;5.13;;;3.63;;
22064;SDS011;11197;53.110;8.468;2023-05-10T08:33:01;6.90;;;4.30;;
22064;SDS011;11197;53.110;8.468;2023-05-10T08:35:27;4.63;;;3.83;;
22064;SDS011;11197;53.110;8.468;2023-05-10T08:37:53;5.40;;;3.97;;
22064;SDS011;11197;53.110;8.468;2023-05-10T08:40:19;5.93;;;3.67;;
22064;SDS011;11197;53.110;8.468;2023-05-10T08:42:51;5.57;;;3.83;;
22064;SDS011;11197;53.110;8.468;2023-05-10T08:45:26;5.78;;;3.75;;
22064;SDS011;11197;53.110;8.468;2023-05-10T08:47:57;6.25;;;3.90;;
22064;SDS011;11197;53.110;8.468;2023-05-10T08:50:24;4.30;;;3.35;;
22064;SDS011;11197;53.110;8.468;2023-05-10T08:52:50;4.90;;;3.70;;
22064;SDS011;11197;53.110;8.468;2023-05-10T08:55:20;4.68;;;3.63;;
22064;SDS011;11197;53.110;8.468;2023-05-10T08:57:49;4.28;;;3.08;;
22064;SDS011;11197;53.110;8.468;2023-05-10T09:00:15;4.88;;;2.92;;
22064;SDS011;11197;53.110;8.468;2023-05-10T09:02:43;4.13;;;2.92;;
22064;SDS011;11197;53.110;8.468;2023-05-10T09:05:11;3.88;;;2.78;;
22064;SDS011;11197;53.110;8.468;2023-05-10T09:07:37;5.57;;;2.80;;
22064;SDS011;11197;53.110;8.468;2023-05-10T09:10:04;4.07;;;2.80;;
22064;SDS011;11197;53.110;8.468;2023-05-10T09:12:30;4.03;;;3.10;;
22064;SDS011;11197;53.110;8.468;2023-05-10T09:14:57;3.72;;;3.05;;
22064;SDS011;11197;53.110;8.468;2023-05-10T09:17:25;4.28;;;3.10;;
22064;SDS011;11197;53.110;8.468;2023-05-10T09:19:58;6.22;;;3.50;;
22064;SDS011;11197;53.110;8.468;2023-05-10T09:22:25;5.22;;;3.30;;
22064;SDS011;11197;53.110;8.468;2023-05-10T09:25:05;6.45;;;3.70;;
22064;SDS011;11197;53.110;8.468;2023-05-10T09:27:34;6.07;;;3.47;;
22064;SDS011;11197;53.110;8.468;2023-05-10T09:30:01;5.00;;;3.50;;
22064;SDS011;11197;53.110;8.468;2023-05-10T09:32:38;6.28;;;4.28;;
22064;SDS011;11197;53.110;8.468;2023-05-10T09:37:42;5.43;;;4.15;;
22064;SDS011;11197;53.110;8.468;2023-05-10T09:40:28;6.30;;;4.25;;
22064;SDS011;11197;53.110;8.468;2023-05-10T09:42:57;5.80;;;3.60;;
22064;SDS011;11197;53.110;8.468;2023-05-10T09:45:25;4.93;;;3.50;;
22064;SDS011;11197;53.110;8.468;2023-05-10T09:47:53;5.95;;;4.07;;
22064;SDS011;11197;53.110;8.468;2023-05-10T09:50:20;7.03;;;4.22;;
22064;SDS011;11197;53.110;8.468;2023-05-10T09:52:53;7.20;;;4.40;;
22064;SDS011;11197;53.110;8.468;2023-05-10T09:55:24;5.85;;;4.15;;
22064;SDS011;11197;53.110;8.468;2023-05-10T09:57:59;7.65;;;3.78;;
22064;SDS011;11197;53.110;8.468;2023-05-10T10:00:26;5.57;;;3.60;;
22064;SDS011;11197;53.110;8.468;2023-05-10T10:02:57;5.50;;;4.00;;
22064;SDS011;11197;53.110;8.468;2023-05-10T10:07:57;7.45;;;4.32;;
22064;SDS011;11197;53.110;8.468;2023-05-10T10:10:27;6.45;;;4.50;;
22064;SDS011;11197;53.110;8.468;2023-05-10T10:12:53;6.33;;;4.50;;
22064;SDS011;11197;53.110;8.468;2023-05-10T10:15:20;7.22;;;4.43;;
22064;SDS011;11197;53.110;8.468;2023-05-10T10:17:47;6.50;;;4.18;;
22064;SDS011;11197;53.110;8.468;2023-05-10T10:20:15;6.18;;;3.83;;
22064;SDS011;11197;53.110;8.468;2023-05-10T10:22:41;5.25;;;3.83;;
22064;SDS011;11197;53.110;8.468;2023-05-10T10:25:10;6.20;;;3.83;;
22064;SDS011;11197;53.110;8.468;2023-05-10T10:35:55;4.43;;;3.28;;
22064;SDS011;11197;53.110;8.468;2023-05-10T10:38:24;3.55;;;2.78;;
22064;SDS011;11197;53.110;8.468;2023-05-10T10:41:03;5.30;;;2.80;;
22064;SDS011;11197;53.110;8.468;2023-05-10T10:43:35;4.15;;;2.53;;
22064;SDS011;11197;53.110;8.468;2023-05-10T10:46:11;5.43;;;3.30;;
22064;SDS011;11197;53.110;8.468;2023-05-10T10:48:47;5.30;;;3.05;;
22064;SDS011;11197;53.110;8.468;2023-05-10T10:51:14;3.35;;;2.53;;
22064;SDS011;11197;53.110;8.468;2023-05-10T10:53:41;4.82;;;2.75;;
22064;SDS011;11197;53.110;8.468;2023-05-10T10:56:08;4.13;;;2.75;;
22064;SDS011;11197;53.110;8.468;2023-05-10T10:58:36;3.97;;;2.75;;
22064;SDS011;11197;53.110;8.468;2023-05-10T11:01:13;3.03;;;1.77;;
22064;SDS011;11197;53.110;8.468;2023-05-10T11:03:41;2.28;;;1.50;;
22064;SDS011;11197;53.110;8.468;2023-05-10T11:06:29;4.63;;;1.60;;
22064;SDS011;11197;53.110;8.468;2023-05-10T11:09:05;2.72;;;1.20;;
22064;SDS011;11197;53.110;8.468;2023-05-10T11:11:48;1.90;;;1.17;;
22064;SDS011;11197;53.110;8.468;2023-05-10T11:14:20;1.65;;;0.95;;
22064;SDS011;11197;53.110;8.468;2023-05-10T11:16:50;1.30;;;1.00;;
22064;SDS011;11197;53.110;8.468;2023-05-10T11:19:17;1.83;;;0.90;;
22064;SDS011;11197;53.110;8.468;2023-05-10T11:24:21;1.10;;;0.80;;
22064;SDS011;11197;53.110;8.468;2023-05-10T11:26:51;1.45;;;0.90;;
22064;SDS011;11197;53.110;8.468;2023-05-10T11:29:18;1.85;;;0.50;;
22064;SDS011;11197;53.110;8.468;2023-05-10T11:31:45;0.47;;;0.35;;
22064;SDS011;11197;53.110;8.468;2023-05-10T11:34:33;1.15;;;0.20;;
22064;SDS011;11197;53.110;8.468;2023-05-10T11:36:58;0.20;;;0.10;;
22064;SDS011;11197;53.110;8.468;2023-05-10T11:39:28;0.55;;;0.10;;
22064;SDS011;11197;53.110;8.468;2023-05-10T11:44:22;0.35;;;0.10;;
22064;SDS011;11197;53.110;8.468;2023-05-10T11:46:48;0.20;;;0.20;;
22064;SDS011;11197;53.110;8.468;2023-05-10T11:49:14;0.73;;;0.20;;
22064;SDS011;11197;53.110;8.468;2023-05-10T11:51:40;0.40;;;0.20;;
22064;SDS011;11197;53.110;8.468;2023-05-10T11:54:09;1.38;;;0.28;;
22064;SDS011;11197;53.110;8.468;2023-05-10T11:56:39;0.22;;;0.22;;
22064;SDS011;11197;53.110;8.468;2023-05-10T11:59:06;1.75;;;0.47;;
22064;SDS011;11197;53.110;8.468;2023-05-10T12:01:33;2.53;;;0.50;;
22064;SDS011;11197;53.110;8.468;2023-05-10T12:04:00;1.77;;;0.90;;
22064;SDS011;11197;53.110;8.468;2023-05-10T12:06:27;1.90;;;1.20;;
22064;SDS011;11197;53.110;8.468;2023-05-10T12:08:56;2.58;;;1.65;;
22064;SDS011;11197;53.110;8.468;2023-05-10T12:11:26;2.33;;;1.90;;
22064;SDS011;11197;53.110;8.468;2023-05-10T12:13:53;3.92;;;2.83;;
22064;SDS011;11197;53.110;8.468;2023-05-10T12:16:22;4.07;;;3.15;;
22064;SDS011;11197;53.110;8.468;2023-05-10T12:18:52;3.25;;;2.55;;
22064;SDS011;11197;53.110;8.468;2023-05-10T12:21:20;4.07;;;2.97;;
22064;SDS011;11197;53.110;8.468;2023-05-10T12:23:48;3.70;;;2.90;;
22064;SDS011;11197;53.110;8.468;2023-05-10T12:26:16;5.05;;;3.75;;
22064;SDS011;11197;53.110;8.468;2023-05-10T12:28:43;4.90;;;4.00;;
22064;SDS011;11197;53.110;8.468;2023-05-10T12:31:09;6.13;;;4.50;;
22064;SDS011;11197;53.110;8.468;2023-05-10T12:33:40;6.88;;;5.28;;
22064;SDS011;11197;53.110;8.468;2023-05-10T12:36:11;6.00;;;5.28;;
22064;SDS011;11197;53.110;8.468;2023-05-10T12:38:42;5.95;;;5.15;;
22064;SDS011;11197;53.110;8.468;2023-05-10T12:41:17;6.60;;;5.40;;
22064;SDS011;11197;53.110;8.468;2023-05-10T12:43:44;6.20;;;5.27;;
22064;SDS011;11197;53.110;8.468;2023-05-10T12:46:14;6.50;;;5.45;;
22064;SDS011;11197;53.110;8.468;2023-05-10T12:48:42;7.30;;;5.22;;
22064;SDS011;11197;53.110;8.468;2023-05-10T12:51:09;6.43;;;5.03;;
22064;SDS011;11197;53.110;8.468;2023-05-10T12:53:37;5.90;;;4.85;;
22064;SDS011;11197;53.110;8.468;2023-05-10T12:56:04;6.20;;;5.05;;
22064;SDS011;11197;53.110;8.468;2023-05-10T12:58:30;7.03;;;4.82;;
22064;SDS011;11197;53.110;8.468;2023-05-10T13:00:57;7.25;;;4.90;;
22064;SDS011;11197;53.110;8.468;2023-05-10T13:03:24;5.40;;;4.35;;
22064;SDS011;11197;53.110;8.468;2023-05-10T13:05:51;4.72;;;4.03;;
22064;SDS011;11197;53.110;8.468;2023-05-10T13:08:17;4.65;;;3.75;;
22064;SDS011;11197;53.110;8.468;2023-05-10T13:10:42;4.05;;;3.65;;
22064;SDS011;11197;53.110;8.468;2023-05-10T13:13:09;4.70;;;3.50;;
22064;SDS011;11197;53.110;8.468;2023-05-10T13:15:35;4.50;;;3.97;;
22064;SDS011;11197;53.110;8.468;2023-05-10T13:18:01;4.85;;;3.92;;
22064;SDS011;11197;53.110;8.468;2023-05-10T13:20:27;4.50;;;4.00;;
22064;SDS011;11197;53.110;8.468;2023-05-10T13:22:53;5.32;;;4.05;;
22064;SDS011;11197;53.110;8.468;2023-05-10T13:25:18;5.05;;;4.40;;
22064;SDS011;11197;53.110;8.468;2023-05-10T13:27:45;5.03;;;4.53;;
22064;SDS011;11197;53.110;8.468;2023-05-10T13:30:11;4.80;;;4.25;;
22064;SDS011;11197;53.110;8.468;2023-05-10T13:32:37;5.47;;;4.57;;
22064;SDS011;11197;53.110;8.468;2023-05-10T13:35:04;6.38;;;4.47;;
22064;SDS011;11197;53.110;8.468;2023-05-10T13:37:30;4.97;;;4.20;;
22064;SDS011;11197;53.110;8.468;2023-05-10T13:39:57;4.68;;;4.00;;
22064;SDS011;11197;53.110;8.468;2023-05-10T13:42:23;4.55;;;4.00;;
22064;SDS011;11197;53.110;8.468;2023-05-10T13:44:49;4.50;;;3.97;;
22064;SDS011;11197;53.110;8.468;2023-05-10T13:47:15;4.53;;;4.07;;
22064;SDS011;11197;53.110;8.468;2023-05-10T13:49:41;4.47;;;3.50;;
22064;SDS011;11197;53.110;8.468;2023-05-10T13:52:07;3.50;;;3.15;;
22064;SDS011;11197;53.110;8.468;2023-05-10T13:54:38;3.50;;;3.20;;
22064;SDS011;11197;53.110;8.468;2023-05-10T13:57:04;3.80;;;3.30;;
22064;SDS011;11197;53.110;8.468;2023-05-10T13:59:31;4.13;;;3.70;;
22064;SDS011;11197;53.110;8.468;2023-05-10T14:01:58;3.83;;;3.20;;
22064;SDS011;11197;53.110;8.468;2023-05-10T14:04:24;3.67;;;3.20;;
22064;SDS011;11197;53.110;8.468;2023-05-10T14:06:50;4.22;;;3.30;;
22064;SDS011;11197;53.110;8.468;2023-05-10T14:09:18;3.60;;;3.15;;
22064;SDS011;11197;53.110;8.468;2023-05-10T14:11:44;4.13;;;3.00;;
22064;SDS011;11197;53.110;8.468;2023-05-10T14:14:11;3.30;;;2.83;;
22064;SDS011;11197;53.110;8.468;2023-05-10T14:16:37;3.50;;;2.75;;
22064;SDS011;11197;53.110;8.468;2023-05-10T14:19:07;3.40;;;2.53;;
22064;SDS011;11197;53.110;8.468;2023-05-10T14:21:33;3.97;;;2.70;;
22064;SDS011;11197;53.110;8.468;2023-05-10T14:23:59;3.05;;;2.20;;
22064;SDS011;11197;53.110;8.468;2023-05-10T14:26:25;3.95;;;2.38;;
22064;SDS011;11197;53.110;8.468;2023-05-10T14:28:52;3.03;;;2.35;;
22064;SDS011;11197;53.110;8.468;2023-05-10T14:31:18;4.18;;;2.40;;
22064;SDS011;11197;53.110;8.468;2023-05-10T14:33:49;3.03;;;2.45;;
22064;SDS011;11197;53.110;8.468;2023-05-10T14:36:15;2.88;;;2.20;;
22064;SDS011;11197;53.110;8.468;2023-05-10T14:38:42;3.88;;;2.40;;
22064;SDS011;11197;53.110;8.468;2023-05-10T14:41:08;3.03;;;2.50;;
22064;SDS011;11197;53.110;8.468;2023-05-10T14:43:34;4.05;;;2.63;;
22064;SDS011;11197;53.110;8.468;2023-05-10T14:46:00;4.05;;;2.83;;
22064;SDS011;11197;53.110;8.468;2023-05-10T14:48:26;4.47;;;3.08;;
22064;SDS011;11197;53.110;8.468;2023-05-10T14:50:52;3.20;;;2.90;;
22064;SDS011;11197;53.110;8.468;2023-05-10T14:53:18;3.58;;;2.63;;
22064;SDS011;11197;53.110;8.468;2023-05-10T14:55:44;4.15;;;2.53;;
22064;SDS011;11197;53.110;8.468;2023-05-10T14:58:10;4.47;;;2.60;;
22064;SDS011;11197;53.110;8.468;2023-05-10T15:00:36;3.03;;;2.30;;
22064;SDS011;11197;53.110;8.468;2023-05-10T15:03:02;2.78;;;2.10;;
22064;SDS011;11197;53.110;8.468;2023-05-10T15:05:29;2.30;;;1.80;;
22064;SDS011;11197;53.110;8.468;2023-05-10T15:07:55;4.72;;;1.90;;
22064;SDS011;11197;53.110;8.468;2023-05-10T15:10:21;3.55;;;1.90;;
22064;SDS011;11197;53.110;8.468;2023-05-10T15:12:47;3.80;;;2.17;;
22064;SDS011;11197;53.110;8.468;2023-05-10T15:15:13;3.25;;;1.90;;
22064;SDS011;11197;53.110;8.468;2023-05-10T15:17:40;3.22;;;2.15;;
22064;SDS011;11197;53.110;8.468;2023-05-10T15:20:07;4.57;;;1.92;;
22064;SDS011;11197;53.110;8.468;2023-05-10T15:22:34;2.00;;;1.42;;
22064;SDS011;11197;53.110;8.468;2023-05-10T15:24:59;1.73;;;1.20;;
22064;SDS011;11197;53.110;8.468;2023-05-10T15:27:25;2.50;;;1.10;;
22064;SDS011;11197;53.110;8.468;2023-05-10T15:29:52;2.65;;;1.10;;
22064;SDS011;11197;53.110;8.468;2023-05-10T15:32:18;2.42;;;1.02;;